Siemreap, Cambodia

12:32 AM ICT on October 01, 2014 (GMT +0700)
Siem Reap | Change Station
CLOSE
Current Station
Airport
Location: Siemreap,
Elevation: 49 ft
Nearby Weather Stations

Elev 49 ft 13.37 °N, 103.85 °E | Updated 32 minutes ago

Scattered Clouds
Scattered Clouds
79 °F
Feels Like 79 °F
N
0
Wind Variable Wind from North

Today
High -- | Low -- °F
--% Chance of Precip.
Yesterday
High -- | Low -- °F
Precip. -- in
5:53 AM 5:54 PM
Waxing Crescent, 38% visible
Pressure 29.83 in
Visibility 5.6 miles
Clouds Scattered Clouds 1500 ft
Dew Point 75 °F
Humidity 89%
Rainfall 0.00 in
Snow Depth Not available.
UV 0 out of 12
Pollen Not available.
Air Quality Not available.
Flu Activity Not available.
METAR VDSR 301700Z 00000KT 9000 SCT015 26/24 Q1010

More Conditions Fewer Conditions

Pressure 29.83 in
Visibility 5.6 miles
Clouds Scattered Clouds 1500 ft
Dew Point 75 °F
Humidity 89%
Rainfall 0.00 in
Snow Depth Not available.
UV 0 out of 12
Pollen Not available.
Air Quality Not available.
Flu Activity Not available.
METAR VDSR 301700Z 00000KT 9000 SCT015 26/24 Q1010

More Conditions Fewer Conditions

10-Day Weather Forecast

Almanac

Astronomy

Oct. 01, 2014 Rise Set
Actual Time 5:53 AM ICT 5:54 PM ICT
Civil Twilight 5:32 AM ICT 6:15 PM ICT
Nautical Twilight 5:08 AM ICT 6:40 PM ICT
Astronomical Twilight 4:43 AM ICT 7:05 PM ICT
Moon 11:44 AM ICT (10/1) 11:33 PM ICT (10/1)
Length of Visible Light 12h 43m
Length of Day
12h 00m
Tomorrow will be 0m 44s shorter.
Waxing Crescent, 38% of the Moon is Illuminated
Sep 30
Waxing Crescent
Oct 1
First Quarter
Oct 8
Full
Oct 15
Last Quarter
Oct 23
New

Yesterday's Extremes

Country Highs Country Lows

Community

WunderPhotos

Upload Photos

1,757,692 photos uploaded!

Nearby

Snow Depth

Not available.

Earthquake Activity

City Distance Mag. Time & Date
No recent earthquake activity has been reported nearby.
Minimum magnitude displayed is 2.5.

Coastal Water Temperatures

Place Temperature
No Stations Reporting

Nearby Weather Stations